createdAt,value
2016-03-23T00:00:24.575Z,1005.17
2016-03-23T00:01:24.641Z,1005.15
2016-03-23T00:02:24.690Z,1005.13
2016-03-23T00:03:24.740Z,1005.11
2016-03-23T00:04:24.789Z,1005.09
2016-03-23T00:05:24.839Z,1005.08
2016-03-23T00:06:24.888Z,1005.09
2016-03-23T00:07:24.954Z,1005.11
2016-03-23T00:08:24.987Z,1005.09
2016-03-23T00:09:25.036Z,1005.1
2016-03-23T00:10:25.086Z,1005.12
2016-03-23T00:11:25.136Z,1005.11
2016-03-23T00:12:25.186Z,1005.13
2016-03-23T00:13:25.235Z,1005.15
2016-03-23T00:14:25.300Z,1005.19
2016-03-23T00:15:25.350Z,1005.13
2016-03-23T00:16:25.399Z,1005.11
2016-03-23T00:17:25.450Z,1005.12
2016-03-23T00:18:25.499Z,1005.2
2016-03-23T00:19:25.549Z,1005.17
2016-03-23T00:20:25.597Z,1005.2
2016-03-23T00:21:25.647Z,1005.19
2016-03-23T00:22:25.697Z,1005.18
2016-03-23T00:23:25.746Z,1005.17
2016-03-23T00:24:25.797Z,1005.18
2016-03-23T00:25:25.861Z,1005.21
2016-03-23T00:26:25.896Z,1005.17
2016-03-23T00:27:25.945Z,1005.17
2016-03-23T00:28:25.994Z,1005.2
2016-03-23T00:29:26.044Z,1005.16
2016-03-23T00:30:26.096Z,1005.18
2016-03-23T00:31:26.163Z,1005.11
2016-03-23T00:32:26.211Z,1005.15
2016-03-23T00:33:26.261Z,1005.21
2016-03-23T00:34:26.310Z,1005.18
2016-03-23T00:35:26.360Z,1005.12
2016-03-23T00:36:26.409Z,1005.13
2016-03-23T00:37:26.459Z,1005.14
2016-03-23T00:38:26.509Z,1005.16
2016-03-23T00:39:26.559Z,1005.16
2016-03-23T00:40:26.607Z,1005.17
2016-03-23T00:41:26.657Z,1005.11
2016-03-23T00:42:26.707Z,1005.13
2016-03-23T00:43:26.756Z,1005.15
2016-03-23T00:44:26.806Z,1005.08
2016-03-23T00:45:26.855Z,1005.09
2016-03-23T00:46:26.905Z,1005.09
2016-03-23T00:47:26.970Z,1005
2016-03-23T00:48:27.019Z,1005.03
2016-03-23T00:49:27.070Z,1005.05
2016-03-23T00:50:27.119Z,1005.03
2016-03-23T00:51:27.169Z,1004.98
2016-03-23T00:52:27.219Z,1005.06
2016-03-23T00:53:27.267Z,1005.05
2016-03-23T00:54:27.333Z,1005.02
2016-03-23T00:55:27.366Z,1005.04
2016-03-23T00:56:27.417Z,1005.04
2016-03-23T00:57:27.482Z,1005.03
2016-03-23T00:58:27.515Z,1005.05
2016-03-23T00:59:27.580Z,1005.04
2016-03-23T01:00:27.630Z,1005.03
2016-03-23T01:01:27.680Z,1005.03
2016-03-23T01:02:27.730Z,1005.03
2016-03-23T01:03:27.780Z,1005
2016-03-23T01:04:27.829Z,1004.99
2016-03-23T01:05:27.878Z,1005
2016-03-23T01:06:27.927Z,1004.97
2016-03-23T01:07:27.977Z,1005
2016-03-23T01:08:28.042Z,1005
2016-03-23T01:09:28.076Z,1004.99
2016-03-23T01:10:28.125Z,1004.97
2016-03-23T01:11:28.176Z,1004.96
2016-03-23T01:12:28.240Z,1004.97
2016-03-23T01:13:28.290Z,1004.94
2016-03-23T01:14:28.324Z,1004.96
2016-03-23T01:15:28.389Z,1004.96
2016-03-23T01:16:28.439Z,1004.93
2016-03-23T01:17:28.489Z,1004.96
2016-03-23T01:18:28.539Z,1004.97
2016-03-23T01:19:28.587Z,1004.94
2016-03-23T01:20:28.636Z,1004.96
2016-03-23T01:21:28.687Z,1004.98
2016-03-23T01:22:28.736Z,1004.99
2016-03-23T01:23:28.786Z,1004.93
2016-03-23T01:24:28.851Z,1004.97
2016-03-23T01:25:28.900Z,1004.99
2016-03-23T01:26:28.950Z,1005.01
2016-03-23T01:27:28.984Z,1005.05
2016-03-23T01:28:29.050Z,1005.02
2016-03-23T01:29:29.099Z,1004.99
2016-03-23T01:30:29.132Z,1005.02
2016-03-23T01:31:29.199Z,1005.05
2016-03-23T01:32:29.247Z,1005.04
2016-03-23T01:33:29.282Z,1005.03
2016-03-23T01:34:29.347Z,1005.02
2016-03-23T01:35:29.399Z,1005.03
2016-03-23T01:36:29.448Z,1005.04
2016-03-23T01:37:29.498Z,1005.03
2016-03-23T01:38:29.548Z,1005.06
2016-03-23T01:39:29.598Z,1005.04
2016-03-23T01:40:29.646Z,1005.06
2016-03-23T01:41:29.696Z,1005
2016-03-23T01:42:29.746Z,1005
2016-03-23T01:43:29.811Z,1004.98
2016-03-23T01:44:29.845Z,1005.01
2016-03-23T01:45:29.910Z,1004.99
2016-03-23T01:46:29.959Z,1004.95
2016-03-23T01:47:29.994Z,1004.97
2016-03-23T01:48:30.043Z,1004.99
2016-03-23T01:49:30.108Z,1004.95
2016-03-23T01:50:30.158Z,1004.97
2016-03-23T01:51:30.208Z,1004.96
2016-03-23T01:52:30.258Z,1004.92
2016-03-23T01:53:30.306Z,1004.92
2016-03-23T01:54:30.356Z,1004.93
2016-03-23T01:55:30.406Z,1004.92
2016-03-23T01:56:30.455Z,1004.92
2016-03-23T01:57:30.521Z,1004.89
2016-03-23T01:58:30.554Z,1004.91
2016-03-23T01:59:30.605Z,1004.89
2016-03-23T02:00:30.669Z,1004.95
2016-03-23T02:01:30.718Z,1004.88
2016-03-23T02:02:30.769Z,1004.9
2016-03-23T02:03:30.818Z,1004.92
2016-03-23T02:04:30.868Z,1004.9
2016-03-23T02:05:30.918Z,1004.91
2016-03-23T02:06:30.967Z,1004.88
2016-03-23T02:07:31.016Z,1004.87
2016-03-23T02:08:32.479Z,1004.89
2016-03-23T02:09:31.120Z,1004.87
2016-03-23T02:10:31.176Z,1004.86
2016-03-23T02:11:31.241Z,1004.85
2016-03-23T02:12:31.270Z,1004.84
2016-03-23T02:13:31.318Z,1004.81
2016-03-23T02:14:31.368Z,1004.83
2016-03-23T02:15:31.417Z,1004.82
2016-03-23T02:16:31.467Z,1004.84
2016-03-23T02:17:31.533Z,1004.85
2016-03-23T02:18:31.566Z,1004.85
2016-03-23T02:19:31.631Z,1004.85
2016-03-23T02:20:31.671Z,1004.9
2016-03-23T02:21:31.721Z,1004.88
2016-03-23T02:22:31.770Z,1004.87
2016-03-23T02:23:31.820Z,1004.84
2016-03-23T02:24:31.869Z,1004.79
2016-03-23T02:25:31.920Z,1004.83
2016-03-23T02:26:31.984Z,1004.82
2016-03-23T02:27:32.018Z,1004.82
2016-03-23T02:28:32.083Z,1004.81
2016-03-23T02:29:32.117Z,1004.76
2016-03-23T02:30:32.182Z,1004.77
2016-03-23T02:31:32.233Z,1004.74
2016-03-23T02:32:32.266Z,1004.77
2016-03-23T02:33:32.331Z,1004.77
2016-03-23T02:34:32.380Z,1004.8
2016-03-23T02:35:32.430Z,1004.76
2016-03-23T02:36:32.480Z,1004.77
2016-03-23T02:37:32.529Z,1004.75
2016-03-23T02:38:32.579Z,1004.74
2016-03-23T02:39:32.628Z,1004.73
2016-03-23T02:40:32.694Z,1004.76
2016-03-23T02:41:32.743Z,1004.69
2016-03-23T02:42:32.777Z,1004.7
2016-03-23T02:43:32.827Z,1004.74
2016-03-23T02:44:32.876Z,1004.73
2016-03-23T02:45:32.926Z,1004.69
2016-03-23T02:46:32.990Z,1004.7
2016-03-23T02:47:33.026Z,1004.69
2016-03-23T02:48:33.090Z,1004.68
2016-03-23T02:49:33.140Z,1004.67
2016-03-23T02:50:33.189Z,1004.64
2016-03-23T02:51:33.239Z,1004.61
2016-03-23T02:52:33.289Z,1004.6
2016-03-23T02:53:33.338Z,1004.61
2016-03-23T02:54:33.388Z,1004.59
2016-03-23T02:55:33.437Z,1004.57
2016-03-23T02:56:33.487Z,1004.56
2016-03-23T02:57:33.553Z,1004.55
2016-03-23T02:58:33.586Z,1004.55
2016-03-23T02:59:33.636Z,1004.55
2016-03-23T03:00:33.685Z,1004.57
2016-03-23T03:01:33.735Z,1004.5
2016-03-23T03:02:33.800Z,1004.54
2016-03-23T03:03:33.849Z,1004.55
2016-03-23T03:04:33.883Z,1004.54
2016-03-23T03:05:33.949Z,1004.52
2016-03-23T03:06:33.999Z,1004.5
2016-03-23T03:07:34.047Z,1004.49
2016-03-23T03:08:34.097Z,1004.48
2016-03-23T03:09:34.147Z,1004.48
2016-03-23T03:10:34.197Z,1004.46
2016-03-23T03:11:34.246Z,1004.48
2016-03-23T03:12:34.295Z,1004.47
2016-03-23T03:13:34.345Z,1004.48
2016-03-23T03:14:34.395Z,1004.46
2016-03-23T03:15:34.443Z,1004.44
2016-03-23T03:16:34.494Z,1004.41
2016-03-23T03:17:34.543Z,1004.37
2016-03-23T03:18:34.592Z,1004.4
2016-03-23T03:19:34.642Z,1004.37
2016-03-23T03:20:34.707Z,1004.35
2016-03-23T03:21:34.757Z,1004.33
2016-03-23T03:22:34.806Z,1004.4
2016-03-23T03:23:34.856Z,1004.37
2016-03-23T03:24:34.906Z,1004.33
2016-03-23T03:25:34.955Z,1004.37
2016-03-23T03:26:35.005Z,1004.38
2016-03-23T03:27:35.070Z,1004.37
2016-03-23T03:28:35.104Z,1004.4
2016-03-23T03:29:35.153Z,1004.38
2016-03-23T03:30:35.203Z,1004.39
2016-03-23T03:31:35.253Z,1004.38
2016-03-23T03:32:35.304Z,1004.37
2016-03-23T03:33:35.353Z,1004.42
2016-03-23T03:34:35.417Z,1004.4
2016-03-23T03:35:35.467Z,1004.37
2016-03-23T03:36:35.501Z,1004.37
2016-03-23T03:37:35.567Z,1004.39
2016-03-23T03:38:35.616Z,1004.39
2016-03-23T03:39:35.666Z,1004.36
2016-03-23T03:40:35.716Z,1004.32
2016-03-23T03:41:35.764Z,1004.33
2016-03-23T03:42:35.815Z,1004.34
2016-03-23T03:43:35.880Z,1004.34
2016-03-23T03:44:35.914Z,1004.34
2016-03-23T03:45:35.963Z,1004.33
2016-03-23T03:46:36.028Z,1004.29
2016-03-23T03:47:36.078Z,1004.28
2016-03-23T03:48:36.112Z,1004.32
2016-03-23T03:49:36.177Z,1004.3
2016-03-23T03:50:36.227Z,1004.26
2016-03-23T03:51:36.276Z,1004.26
2016-03-23T03:52:36.326Z,1004.25
2016-03-23T03:53:36.376Z,1004.24
2016-03-23T03:54:36.425Z,1004.29
2016-03-23T03:55:36.474Z,1004.24
2016-03-23T03:56:36.524Z,1004.27
2016-03-23T03:57:36.574Z,1004.27
2016-03-23T03:58:36.623Z,1004.27
2016-03-23T03:59:36.673Z,1004.31
2016-03-23T04:00:36.723Z,1004.29
2016-03-23T04:01:36.772Z,1004.32
2016-03-23T04:02:36.821Z,1004.32
2016-03-23T04:03:36.871Z,1004.32
2016-03-23T04:04:36.921Z,1004.29
2016-03-23T04:05:36.986Z,1004.3
2016-03-23T04:06:37.036Z,1004.29
2016-03-23T04:07:37.069Z,1004.31
2016-03-23T04:08:37.134Z,1004.29
2016-03-23T04:09:37.184Z,1004.3
2016-03-23T04:10:37.233Z,1004.28
2016-03-23T04:11:37.284Z,1004.3
2016-03-23T04:12:37.333Z,1004.29
2016-03-23T04:13:37.383Z,1004.29
2016-03-23T04:14:37.432Z,1004.31
2016-03-23T04:15:37.481Z,1004.27
2016-03-23T04:16:37.531Z,1004.28
2016-03-23T04:17:37.596Z,1004.29
2016-03-23T04:18:37.630Z,1004.32
2016-03-23T04:19:37.695Z,1004.32
2016-03-23T04:20:37.744Z,1004.34
2016-03-23T04:21:37.779Z,1004.33
2016-03-23T04:22:37.828Z,1004.32
2016-03-23T04:23:37.893Z,1004.37
2016-03-23T04:24:37.943Z,1004.34
2016-03-23T04:25:37.992Z,1004.35
2016-03-23T04:26:38.042Z,1004.31
2016-03-23T04:27:38.092Z,1004.35
2016-03-23T04:28:38.140Z,1004.33
2016-03-23T04:29:38.190Z,1004.32
2016-03-23T04:30:38.240Z,1004.32
2016-03-23T04:31:38.321Z,1004.3
2016-03-23T04:32:38.339Z,1004.29
2016-03-23T04:33:38.389Z,1004.3
2016-03-23T04:34:38.892Z,1004.32
2016-03-23T04:35:39.003Z,1004.3
2016-03-23T04:36:39.256Z,1004.34
2016-03-23T04:37:38.587Z,1004.34
2016-03-23T04:38:38.653Z,1004.36
2016-03-23T04:39:38.702Z,1004.33
2016-03-23T04:40:38.752Z,1004.36
2016-03-23T04:41:38.801Z,1004.39
2016-03-23T04:42:38.851Z,1004.34
2016-03-23T04:43:38.900Z,1004.33
2016-03-23T04:44:38.950Z,1004.35
2016-03-23T04:45:39.000Z,1004.36
2016-03-23T04:46:39.783Z,1004.38
2016-03-23T04:47:39.099Z,1004.38
2016-03-23T04:48:39.164Z,1004.35
2016-03-23T04:49:39.214Z,1004.34
2016-03-23T04:50:39.247Z,1004.35
2016-03-23T04:51:39.312Z,1004.37
2016-03-23T04:52:39.363Z,1004.37
2016-03-23T04:53:39.396Z,1004.38
2016-03-23T04:54:39.461Z,1004.42
2016-03-23T04:55:39.511Z,1004.39
2016-03-23T04:56:39.560Z,1004.39
2016-03-23T04:57:39.610Z,1004.42
2016-03-23T04:58:39.675Z,1004.43
2016-03-23T04:59:39.725Z,1004.42
2016-03-23T05:00:39.774Z,1004.48
2016-03-23T05:01:39.809Z,1004.46
2016-03-23T05:02:39.857Z,1004.46
2016-03-23T05:03:39.923Z,1004.44
2016-03-23T05:04:39.956Z,1004.49
2016-03-23T05:05:40.007Z,1004.44
2016-03-23T05:06:40.072Z,1004.49
2016-03-23T05:07:40.106Z,1004.49
2016-03-23T05:08:40.155Z,1004.5
2016-03-23T05:09:40.220Z,1004.52
2016-03-23T05:10:40.270Z,1004.52
2016-03-23T05:11:40.319Z,1004.55
2016-03-23T05:12:40.369Z,1004.54
2016-03-23T05:13:40.418Z,1004.54
2016-03-23T05:14:40.469Z,1004.52
2016-03-23T05:15:40.514Z,1004.54
2016-03-23T05:16:40.554Z,1004.53
2016-03-23T05:17:40.593Z,1004.55
2016-03-23T05:18:40.632Z,1004.54
2016-03-23T05:19:40.672Z,1004.55
2016-03-23T05:20:40.728Z,1004.55
2016-03-23T05:21:40.774Z,1004.53
2016-03-23T05:22:40.805Z,1004.57
2016-03-23T05:23:40.866Z,1004.56
2016-03-23T05:24:40.913Z,1004.56
2016-03-23T05:25:40.960Z,1004.53
2016-03-23T05:26:41.008Z,1004.57
2016-03-23T05:27:41.056Z,1004.58
2016-03-23T05:28:41.103Z,1004.58
2016-03-23T05:29:41.151Z,1004.57
2016-03-23T05:30:41.199Z,1004.58
2016-03-23T05:31:41.249Z,1004.6
2016-03-23T05:32:41.299Z,1004.57
2016-03-23T05:33:41.348Z,1004.6
2016-03-23T05:34:41.397Z,1004.6
2016-03-23T05:35:41.447Z,1004.61
2016-03-23T05:36:41.495Z,1004.62
2016-03-23T05:37:41.545Z,1004.66
2016-03-23T05:38:41.610Z,1004.66
2016-03-23T05:39:41.660Z,1004.65
2016-03-23T05:40:41.694Z,1004.65
2016-03-23T05:41:41.758Z,1004.72
2016-03-23T05:42:41.808Z,1004.7
2016-03-23T05:43:41.857Z,1004.74
2016-03-23T05:44:41.907Z,1004.72
2016-03-23T05:45:41.957Z,1004.7
2016-03-23T05:46:42.007Z,1004.74
2016-03-23T05:47:42.072Z,1004.74
2016-03-23T05:48:42.121Z,1004.77
2016-03-23T05:49:42.155Z,1004.76
2016-03-23T05:50:42.220Z,1004.8
2016-03-23T05:51:42.270Z,1004.8
2016-03-23T05:52:42.320Z,1004.81
2016-03-23T05:53:42.370Z,1004.8
2016-03-23T05:54:42.403Z,1004.84
2016-03-23T05:55:42.469Z,1004.84
2016-03-23T05:56:42.518Z,1004.85
2016-03-23T05:57:42.568Z,1004.86
2016-03-23T05:58:42.618Z,1004.84
2016-03-23T05:59:42.667Z,1004.81
2016-03-23T06:00:42.717Z,1004.89
2016-03-23T06:01:42.766Z,1004.87
2016-03-23T06:02:42.831Z,1004.92
2016-03-23T06:03:42.865Z,1004.93
2016-03-23T06:04:42.914Z,1004.91
2016-03-23T06:05:42.980Z,1004.89
2016-03-23T06:06:43.023Z,1004.91
2016-03-23T06:07:43.067Z,1004.9
2016-03-23T06:08:43.117Z,1004.88
2016-03-23T06:09:43.166Z,1004.85
2016-03-23T06:10:43.232Z,1004.86
2016-03-23T06:11:43.265Z,1004.89
2016-03-23T06:12:43.331Z,1004.9
2016-03-23T06:13:43.381Z,1004.89
2016-03-23T06:14:43.429Z,1004.9
2016-03-23T06:15:43.479Z,1004.91
2016-03-23T06:16:43.528Z,1004.91
2016-03-23T06:17:43.578Z,1004.91
2016-03-23T06:18:43.628Z,1004.95
2016-03-23T06:19:43.678Z,1004.97
2016-03-23T06:20:43.728Z,1004.93
2016-03-23T06:21:43.777Z,1004.97
2016-03-23T06:22:43.826Z,1005.02
2016-03-23T06:23:43.875Z,1005.05
2016-03-23T06:24:43.941Z,1005.01
2016-03-23T06:25:43.991Z,1005.03
2016-03-23T06:26:44.025Z,1005.01
2016-03-23T06:27:44.089Z,1005.02
2016-03-23T06:28:44.139Z,1005.01
2016-03-23T06:29:44.188Z,1005.07
2016-03-23T06:30:44.238Z,1005.05
2016-03-23T06:31:44.304Z,1005
2016-03-23T06:32:44.338Z,1005.05
2016-03-23T06:33:44.388Z,1005.03
2016-03-23T06:34:44.452Z,1005.07
2016-03-23T06:35:44.486Z,1005.01
2016-03-23T06:36:44.535Z,1005.05
2016-03-23T06:37:44.601Z,1005.04
2016-03-23T06:38:44.651Z,1005.05
2016-03-23T06:39:44.684Z,1005.03
2016-03-23T06:40:44.734Z,1005
2016-03-23T06:41:44.798Z,1005.03
2016-03-23T06:42:44.833Z,1005.01
2016-03-23T06:43:44.898Z,1005.02
2016-03-23T06:44:44.932Z,1004.96
2016-03-23T06:45:45.013Z,1005
2016-03-23T06:46:45.047Z,1004.98
2016-03-23T06:47:45.097Z,1004.99
2016-03-23T06:48:45.145Z,1005.01
2016-03-23T06:49:45.195Z,1005.01
2016-03-23T06:50:45.245Z,1004.95
2016-03-23T06:51:45.294Z,1005
2016-03-23T06:52:45.360Z,1004.99
2016-03-23T06:53:45.394Z,1004.94
2016-03-23T06:54:45.444Z,1004.94
2016-03-23T06:55:45.509Z,1004.97
2016-03-23T06:56:45.543Z,1004.9
2016-03-23T06:57:45.608Z,1004.91
2016-03-23T06:58:45.658Z,1004.91
2016-03-23T06:59:45.708Z,1004.94
2016-03-23T07:00:45.772Z,1004.92
2016-03-23T07:01:45.806Z,1004.93
2016-03-23T07:02:45.856Z,1004.88
2016-03-23T07:03:45.905Z,1004.91
2016-03-23T07:04:45.955Z,1004.98
2016-03-23T07:05:46.004Z,1004.97
2016-03-23T07:06:46.054Z,1004.97
2016-03-23T07:07:46.103Z,1005.01
2016-03-23T07:08:46.154Z,1004.99
2016-03-23T07:09:46.202Z,1004.97
2016-03-23T07:10:46.252Z,1004.96
2016-03-23T07:11:46.318Z,1004.98
2016-03-23T07:12:46.367Z,1005.01
2016-03-23T07:13:46.401Z,1004.99
2016-03-23T07:14:46.465Z,1005.01
2016-03-23T07:15:46.515Z,1004.99
2016-03-23T07:16:46.565Z,1004.99
2016-03-23T07:17:46.630Z,1005.04
2016-03-23T07:18:46.664Z,1004.99
2016-03-23T07:19:46.714Z,1005.02
2016-03-23T07:20:46.763Z,1005.01
2016-03-23T07:21:46.828Z,1005.07
2016-03-23T07:22:46.862Z,1005.07
2016-03-23T07:23:46.912Z,1005.03
2016-03-23T07:24:46.962Z,1005.05
2016-03-23T07:25:47.027Z,1005.05
2016-03-23T07:26:47.077Z,1005.04
2016-03-23T07:27:47.110Z,1005.07
2016-03-23T07:28:47.175Z,1005.02
2016-03-23T07:29:47.272Z,1005.02
2016-03-23T07:30:47.275Z,1005.05
2016-03-23T07:31:47.324Z,1005.04
2016-03-23T07:32:47.374Z,1005.01
2016-03-23T07:33:47.424Z,1004.99
2016-03-23T07:34:47.473Z,1004.97
2016-03-23T07:35:47.522Z,1004.96
2016-03-23T07:36:47.572Z,1004.96
2016-03-23T07:37:47.637Z,1004.91
2016-03-23T07:38:47.671Z,1004.9
2016-03-23T07:39:47.736Z,1004.9
2016-03-23T07:40:47.785Z,1004.9
2016-03-23T07:41:47.820Z,1004.89
2016-03-23T07:42:47.869Z,1004.91
2016-03-23T07:43:47.935Z,1004.89
2016-03-23T07:44:47.984Z,1004.87
2016-03-23T07:45:48.034Z,1004.88
2016-03-23T07:46:48.084Z,1004.89
2016-03-23T07:47:48.133Z,1004.92
2016-03-23T07:48:48.182Z,1004.9
2016-03-23T07:49:48.232Z,1004.94
2016-03-23T07:50:48.281Z,1004.93
2016-03-23T07:51:48.347Z,1004.93
2016-03-23T07:52:48.380Z,1004.92
2016-03-23T07:53:48.430Z,1004.92
2016-03-23T07:54:48.495Z,1004.96
2016-03-23T07:55:48.544Z,1004.97
2016-03-23T07:56:48.595Z,1004.94
2016-03-23T07:57:48.644Z,1004.98
2016-03-23T07:58:48.725Z,1005.01
2016-03-23T07:59:48.743Z,1005.01
2016-03-23T08:00:48.793Z,1004.95
2016-03-23T08:01:48.842Z,1004.99
2016-03-23T08:02:48.892Z,1004.98
2016-03-23T08:03:48.942Z,1004.98
2016-03-23T08:04:48.991Z,1004.97
2016-03-23T08:05:49.041Z,1004.98
2016-03-23T08:06:49.105Z,1004.99
2016-03-23T08:07:49.140Z,1004.98
2016-03-23T08:08:49.205Z,1005
2016-03-23T08:09:49.254Z,1004.97
2016-03-23T08:10:49.320Z,1004.99
2016-03-23T08:11:49.353Z,1004.94
2016-03-23T08:12:49.403Z,1004.97
2016-03-23T08:13:49.453Z,1004.99
2016-03-23T08:14:49.502Z,1004.97
2016-03-23T08:15:49.551Z,1004.97
2016-03-23T08:16:49.601Z,1004.95
2016-03-23T08:17:49.651Z,1004.94
2016-03-23T08:18:49.716Z,1004.92
2016-03-23T08:19:49.751Z,1004.98
2016-03-23T08:20:49.800Z,1004.95
2016-03-23T08:21:49.865Z,1004.94
2016-03-23T08:22:49.914Z,1004.99
2016-03-23T08:23:49.964Z,1005
2016-03-23T08:24:50.014Z,1005.02
2016-03-23T08:25:50.063Z,1005
2016-03-23T08:26:50.113Z,1004.96
2016-03-23T08:27:50.162Z,1005.02
2016-03-23T08:28:50.211Z,1004.99
2016-03-23T08:29:50.262Z,1004.96
2016-03-23T08:30:50.311Z,1004.95
2016-03-23T08:31:50.361Z,1004.99
2016-03-23T08:32:50.425Z,1004.97
2016-03-23T08:33:50.460Z,1005
2016-03-23T08:34:50.510Z,1004.99
2016-03-23T08:35:50.574Z,1004.98
2016-03-23T08:36:50.624Z,1005.03
2016-03-23T08:37:50.657Z,1005.04
2016-03-23T08:38:50.724Z,1005.04
2016-03-23T08:39:50.757Z,1005
2016-03-23T08:40:50.822Z,1005.07
2016-03-23T08:41:50.872Z,1005.01
2016-03-23T08:42:50.921Z,1005.01
2016-03-23T08:43:50.986Z,1005.01
2016-03-23T08:44:51.037Z,1004.99
2016-03-23T08:45:51.070Z,1004.97
2016-03-23T08:46:51.120Z,1004.99
2016-03-23T08:47:51.184Z,1004.97
2016-03-23T08:48:51.218Z,1004.96
2016-03-23T08:49:51.268Z,1005.03
2016-03-23T08:50:51.333Z,1005.06
2016-03-23T08:51:51.368Z,1004.97
2016-03-23T08:52:51.433Z,1005
2016-03-23T08:53:51.466Z,1004.96
2016-03-23T08:54:51.516Z,1004.97
2016-03-23T08:55:51.581Z,1005.01
2016-03-23T08:56:51.631Z,1004.97
2016-03-23T08:57:51.680Z,1005.01
2016-03-23T08:58:51.745Z,1005.02
2016-03-23T08:59:51.780Z,1005.01
2016-03-23T09:00:51.829Z,1005.06
2016-03-23T09:01:51.895Z,1005.03
2016-03-23T09:02:51.944Z,1005.09
2016-03-23T09:03:51.978Z,1005.11
2016-03-23T09:04:52.027Z,1005.09
2016-03-23T09:05:52.077Z,1005.09
2016-03-23T09:06:52.142Z,1005.1
2016-03-23T09:07:52.176Z,1005.08
2016-03-23T09:08:52.241Z,1005.09
2016-03-23T09:09:52.306Z,1005.13
2016-03-23T09:10:52.341Z,1005.13
2016-03-23T09:11:52.390Z,1005.12
2016-03-23T09:12:52.440Z,1005.17
2016-03-23T09:13:52.489Z,1005.14
2016-03-23T09:14:52.538Z,1005.13
2016-03-23T09:15:52.588Z,1005.14
2016-03-23T09:16:52.638Z,1005.15
2016-03-23T09:17:52.687Z,1005.18
2016-03-23T09:18:52.737Z,1005.15
2016-03-23T09:19:52.786Z,1005.17
2016-03-23T09:20:52.851Z,1005.2
2016-03-23T09:21:52.901Z,1005.21
2016-03-23T09:22:52.950Z,1005.25
2016-03-23T09:23:53.001Z,1005.21
2016-03-23T09:24:53.050Z,1005.25
2016-03-23T09:25:53.099Z,1005.28
2016-03-23T09:26:53.149Z,1005.19
2016-03-23T09:27:53.214Z,1005.26
2016-03-23T09:28:53.248Z,1005.25
2016-03-23T09:29:53.297Z,1005.28
2016-03-23T09:30:53.363Z,1005.28
2016-03-23T09:31:53.397Z,1005.28
2016-03-23T09:32:53.461Z,1005.3
2016-03-23T09:33:53.497Z,1005.34
2016-03-23T09:34:53.546Z,1005.29
2016-03-23T09:35:53.610Z,1005.38
2016-03-23T09:36:53.644Z,1005.36
2016-03-23T09:37:53.694Z,1005.36
2016-03-23T09:38:53.760Z,1005.4
2016-03-23T09:39:53.793Z,1005.34
2016-03-23T09:40:53.843Z,1005.37
2016-03-23T09:41:53.908Z,1005.31
2016-03-23T09:42:53.957Z,1005.31
2016-03-23T09:43:54.008Z,1005.3
2016-03-23T09:44:54.057Z,1005.34
2016-03-23T09:45:54.107Z,1005.34
2016-03-23T09:46:54.157Z,1005.27
2016-03-23T09:47:54.206Z,1005.26
2016-03-23T09:48:54.255Z,1005.31
2016-03-23T09:49:54.320Z,1005.25
2016-03-23T09:50:54.369Z,1005.22
2016-03-23T09:51:54.403Z,1005.22
2016-03-23T09:52:54.469Z,1005.27
2016-03-23T09:53:54.518Z,1005.25
2016-03-23T09:54:54.553Z,1005.23
2016-03-23T09:55:54.618Z,1005.18
2016-03-23T09:56:54.667Z,1005.18
2016-03-23T09:57:54.716Z,1005.14
2016-03-23T09:58:54.767Z,1005.14
2016-03-23T09:59:54.816Z,1005.15
2016-03-23T10:00:54.865Z,1005.16
2016-03-23T10:01:54.914Z,1005.16
2016-03-23T10:02:54.964Z,1005.19
2016-03-23T10:03:55.014Z,1005.13
2016-03-23T10:04:55.064Z,1005.17
2016-03-23T10:05:55.129Z,1005.19
2016-03-23T10:06:55.178Z,1005.21
2016-03-23T10:07:55.212Z,1005.24
2016-03-23T10:08:55.278Z,1005.17
2016-03-23T10:09:55.311Z,1005.2
2016-03-23T10:10:55.377Z,1005.2
2016-03-23T10:11:55.426Z,1005.21
2016-03-23T10:12:55.476Z,1005.22
2016-03-23T10:13:55.526Z,1005.29
2016-03-23T10:14:55.574Z,1005.21
2016-03-23T10:15:55.625Z,1005.2
2016-03-23T10:16:55.674Z,1005.18
2016-03-23T10:17:55.739Z,1005.24
2016-03-23T10:18:55.774Z,1005.13
2016-03-23T10:19:55.823Z,1005.16
2016-03-23T10:20:55.873Z,1005.13
2016-03-23T10:21:55.922Z,1005.13
2016-03-23T10:22:55.987Z,1005.15
2016-03-23T10:23:56.036Z,1005.19
2016-03-23T10:24:56.087Z,1005.13
2016-03-23T10:25:56.136Z,1005.19
2016-03-23T10:26:56.185Z,1005.19
2016-03-23T10:27:56.234Z,1005.17
2016-03-23T10:28:56.284Z,1005.16
2016-03-23T10:29:56.334Z,1005.16
2016-03-23T10:30:56.383Z,1005.12
2016-03-23T10:31:56.449Z,1005.19
2016-03-23T10:32:56.483Z,1005.15
2016-03-23T10:33:56.532Z,1005.17
2016-03-23T10:34:56.598Z,1005.14
2016-03-23T10:35:56.647Z,1005.19
2016-03-23T10:36:56.696Z,1005.18
2016-03-23T10:37:56.746Z,1005.16
2016-03-23T10:38:56.796Z,1005.19
2016-03-23T10:39:56.846Z,1005.17
2016-03-23T10:40:56.894Z,1005.18
2016-03-23T10:41:56.944Z,1005.19
2016-03-23T10:42:56.994Z,1005.2
2016-03-23T10:43:57.043Z,1005.18
2016-03-23T10:44:57.094Z,1005.24
2016-03-23T10:45:57.143Z,1005.22
2016-03-23T10:46:57.193Z,1005.23
2016-03-23T10:47:57.242Z,1005.22
2016-03-23T10:48:57.291Z,1005.23
2016-03-23T10:49:57.340Z,1005.23
2016-03-23T10:50:57.437Z,1005.21
2016-03-23T10:52:06.487Z,1005.19
2016-03-23T10:52:57.505Z,1005.15
2016-03-23T10:53:57.554Z,1005.19
2016-03-23T10:54:57.604Z,1005.17
2016-03-23T10:55:57.654Z,1005.19
2016-03-23T10:56:57.703Z,1005.13
2016-03-23T10:57:57.769Z,1005.2
2016-03-23T10:58:57.818Z,1005.18
2016-03-23T10:59:57.852Z,1005.15
2016-03-23T11:00:57.906Z,1005.15
2016-03-23T11:01:57.956Z,1005.17
2016-03-23T11:02:58.006Z,1005.18
2016-03-23T11:03:58.055Z,1005.22
2016-03-23T11:04:58.121Z,1005.23
2016-03-23T11:05:58.154Z,1005.21
2016-03-23T11:06:58.204Z,1005.23
2016-03-23T11:07:58.269Z,1005.22
2016-03-23T11:08:58.319Z,1005.22
2016-03-23T11:09:58.368Z,1005.24
2016-03-23T11:10:58.574Z,1005.26
2016-03-23T11:11:58.468Z,1005.25
2016-03-23T11:12:58.501Z,1005.25
2016-03-23T11:13:58.566Z,1005.19
2016-03-23T11:14:58.615Z,1005.22
2016-03-23T11:15:58.682Z,1005.17
2016-03-23T11:16:58.715Z,1005.2
2016-03-23T11:17:58.764Z,1005.22
2016-03-23T11:18:58.815Z,1005.24
2016-03-23T11:19:58.879Z,1005.21
2016-03-23T11:20:58.914Z,1005.26
2016-03-23T11:21:58.963Z,1005.2
2016-03-23T11:22:59.059Z,1005.21
2016-03-23T11:23:59.062Z,1005.21
2016-03-23T11:24:59.111Z,1005.17
2016-03-23T11:25:59.178Z,1005.2
2016-03-23T11:26:59.226Z,1005.16
2016-03-23T11:27:59.276Z,1005.2
2016-03-23T11:28:59.326Z,1005.23
2016-03-23T11:29:59.375Z,1005.23
2016-03-23T11:30:59.425Z,1005.22
2016-03-23T11:31:59.475Z,1005.22
2016-03-23T11:32:59.525Z,1005.2
2016-03-23T11:33:59.589Z,1005.19
2016-03-23T11:34:59.638Z,1005.24
2016-03-23T11:35:59.689Z,1005.19
2016-03-23T11:36:59.738Z,1005.2
2016-03-23T11:37:59.788Z,1005.22
2016-03-23T11:38:59.821Z,1005.15
2016-03-23T11:39:59.886Z,1005.16
2016-03-23T11:40:59.935Z,1005.19
2016-03-23T11:41:59.986Z,1005.15
2016-03-23T11:43:00.035Z,1005.11
2016-03-23T11:44:00.084Z,1005.11
2016-03-23T11:45:00.134Z,1005.08
2016-03-23T11:46:00.184Z,1005.12
2016-03-23T11:47:00.234Z,1005.11
2016-03-23T11:48:00.282Z,1005.07
2016-03-23T11:49:00.332Z,1005.05
2016-03-23T11:50:00.382Z,1005.06
2016-03-23T11:51:00.447Z,1005.06
2016-03-23T11:52:00.498Z,1005.03
2016-03-23T11:53:00.546Z,1004.98
2016-03-23T11:54:00.581Z,1005.04
2016-03-23T11:55:00.645Z,1005
2016-03-23T11:56:00.695Z,1005
2016-03-23T11:57:00.745Z,1005.05
2016-03-23T11:58:00.794Z,1005.05
2016-03-23T11:59:00.859Z,1005
2016-03-23T12:00:00.894Z,1004.97
2016-03-23T12:01:00.942Z,1005
2016-03-23T12:02:01.009Z,1004.98
2016-03-23T12:03:01.042Z,1005.08
2016-03-23T12:04:01.107Z,1005
2016-03-23T12:05:01.141Z,1005.02
2016-03-23T12:06:01.206Z,1005.05
2016-03-23T12:07:01.272Z,1005.02
2016-03-23T12:08:01.305Z,1005.03
2016-03-23T12:09:01.355Z,1005.03
2016-03-23T12:10:01.404Z,1004.99